Time;durP1;ratioP1;P1;durP2;ratioP2;P2;SDS_P1;SDS_P2;PMS_P1;PMS_P2;Temp;Humidity;BMP_temperature;BMP_pressure;BME280_temperature;BME280_humidity;BME280_pressure;Samples;Min_cycle;Max_cycle;Signal;HPM_P1;HPM_P2
2022/01/23 00:00:02;;;;;;;29.67;14.50;;;-4.30;99.90;;;;;;5035169;28;20091;-80
2022/01/23 00:02:28;;;;;;;28.48;12.70;;;-4.30;99.90;;;;;;5058995;28;20166;-80
2022/01/23 00:04:55;;;;;;;24.00;12.70;;;-4.30;99.90;;;;;;5075778;28;20052;-80
2022/01/23 00:07:21;;;;;;;32.45;14.52;;;-4.30;99.90;;;;;;5057565;28;20032;-80
2022/01/23 00:09:47;;;;;;;21.90;11.10;;;-4.30;99.90;;;;;;5068828;28;20108;-80
2022/01/23 00:12:20;;;;;;;22.60;10.90;;;-4.30;99.90;;;;;;5054327;28;20135;-80
2022/01/23 00:17:35;;;;;;;32.45;13.75;;;-4.30;99.90;;;;;;5072129;28;20508;-80
2022/01/23 00:20:04;;;;;;;38.65;14.65;;;-4.30;99.90;;;;;;5057367;28;20051;-80
2022/01/23 00:22:50;;;;;;;24.38;12.80;;;-4.30;99.90;;;;;;5057310;28;20095;-80
2022/01/23 00:30:46;;;;;;;34.10;15.15;;;-4.30;99.90;;;;;;5064563;28;20048;-80
2022/01/23 00:33:14;;;;;;;23.92;10.40;;;-4.40;99.90;;;;;;5056576;28;20021;-80
2022/01/23 00:35:41;;;;;;;22.98;9.70;;;-4.30;99.90;;;;;;5074850;28;20039;-80
2022/01/23 00:38:08;;;;;;;16.92;10.23;;;-4.30;99.90;;;;;;5074880;28;20533;-80
2022/01/23 00:40:36;;;;;;;23.10;9.98;;;-4.40;99.90;;;;;;5057097;28;20056;-80
2022/01/23 00:43:07;;;;;;;24.40;9.60;;;-4.40;99.90;;;;;;5056920;28;20081;-80
2022/01/23 00:45:34;;;;;;;24.85;10.15;;;-4.40;99.90;;;;;;5056815;28;20052;-80
2022/01/23 00:48:07;;;;;;;37.72;18.02;;;-4.40;99.90;;;;;;5074924;28;20032;-80
2022/01/23 00:50:36;;;;;;;41.80;16.65;;;-4.40;99.90;;;;;;5064380;28;20048;-81
2022/01/23 00:53:03;;;;;;;24.02;13.02;;;-4.40;99.90;;;;;;5051226;28;20083;-80
2022/01/23 00:55:29;;;;;;;17.73;8.73;;;-4.40;99.90;;;;;;5033646;28;20036;-81
2022/01/23 00:57:55;;;;;;;16.15;8.98;;;-4.40;99.90;;;;;;5043328;28;20041;-80
2022/01/23 01:00:21;;;;;;;23.02;10.93;;;-4.50;99.90;;;;;;5073566;28;20437;-80
2022/01/23 01:02:48;;;;;;;22.83;10.45;;;-4.50;99.90;;;;;;5074370;28;20033;-80
2022/01/23 01:05:14;;;;;;;22.33;10.00;;;-4.50;99.90;;;;;;5056481;28;20040;-80
2022/01/23 01:07:41;;;;;;;18.20;9.43;;;-4.50;99.90;;;;;;5063060;28;20045;-80
2022/01/23 01:10:13;;;;;;;47.63;22.50;;;-4.50;99.90;;;;;;5036584;28;20029;-80
2022/01/23 01:12:42;;;;;;;24.27;11.03;;;-4.50;99.90;;;;;;5054260;28;20036;-80
2022/01/23 01:31:39;;;;;;;47.95;21.27;;;-4.50;99.90;;;;;;5054283;28;20036;-80
2022/01/23 01:34:10;;;;;;;31.55;11.70;;;-4.40;99.90;;;;;;5054041;28;20029;-80
2022/01/23 01:36:46;;;;;;;22.73;10.00;;;-4.40;99.90;;;;;;5035527;28;20528;-80
2022/01/23 01:39:13;;;;;;;23.20;11.45;;;-4.40;99.90;;;;;;5053947;28;20033;-80
2022/01/23 01:41:41;;;;;;;20.63;9.70;;;-4.50;99.90;;;;;;5053616;28;20116;-80
2022/01/23 01:44:07;;;;;;;24.60;10.00;;;-4.40;99.90;;;;;;5035776;28;20040;-80
2022/01/23 01:46:33;;;;;;;22.63;9.38;;;-4.40;99.90;;;;;;5035839;28;20044;-80
2022/01/23 01:48:59;;;;;;;27.50;11.57;;;-4.40;99.90;;;;;;5035714;28;20036;-80
2022/01/23 01:51:30;;;;;;;15.32;8.38;;;-4.40;99.90;;;;;;5053643;28;20118;-80
2022/01/23 01:54:04;;;;;;;19.90;9.45;;;-4.40;99.90;;;;;;5035767;28;20556;-80
2022/01/23 01:56:39;;;;;;;18.88;8.02;;;-4.40;99.90;;;;;;5053267;28;20025;-80
2022/01/23 01:59:21;;;;;;;12.68;7.78;;;-4.40;99.90;;;;;;5053457;28;20025;-80
2022/01/23 02:09:37;;;;;;;34.03;13.75;;;-4.30;99.90;;;;;;5054153;28;20107;-79
2022/01/23 02:15:43;;;;;;;14.95;9.13;;;-4.30;99.90;;;;;;4971628;28;20110;-79
2022/01/23 02:23:56;;;;;;;17.45;8.32;;;-4.50;99.90;;;;;;5053491;28;20086;-80
2022/01/23 02:50:57;;;;;;;26.95;9.65;;;-4.50;99.90;;;;;;5052673;28;20075;-79
2022/01/23 02:53:37;;;;;;;13.88;7.80;;;-4.50;99.90;;;;;;5052703;28;20028;-79
2022/01/23 02:56:06;;;;;;;15.50;7.82;;;-4.50;99.90;;;;;;5052644;28;20501;-79
2022/01/23 02:58:36;;;;;;;21.17;11.13;;;-4.50;99.90;;;;;;5052587;28;20120;-80
2022/01/23 03:01:16;;;;;;;17.77;8.20;;;-4.50;99.90;;;;;;5034647;28;20032;-80
2022/01/23 03:03:45;;;;;;;19.40;9.27;;;-4.50;99.90;;;;;;5034900;28;20049;-80
2022/01/23 03:09:20;;;;;;;19.33;9.07;;;-4.40;99.90;;;;;;5051826;28;20052;-80
2022/01/23 03:25:19;;;;;;;15.82;10.07;;;-4.50;99.90;;;;;;5054762;28;20386;-80
2022/01/23 03:30:22;;;;;;;24.23;11.45;;;-4.50;99.90;;;;;;5056605;28;20029;-80
2022/01/23 03:32:50;;;;;;;17.02;8.63;;;-4.50;99.90;;;;;;5038482;28;20079;-80
2022/01/23 03:35:18;;;;;;;21.50;11.35;;;-4.50;99.90;;;;;;5038398;28;20064;-81
2022/01/23 03:37:44;;;;;;;16.95;8.82;;;-4.60;99.90;;;;;;5038214;28;20033;-80
2022/01/23 03:40:10;;;;;;;19.83;9.38;;;-4.60;99.90;;;;;;5056090;28;20037;-80
2022/01/23 03:42:39;;;;;;;20.10;9.32;;;-4.60;99.90;;;;;;5038058;28;20029;-80
2022/01/23 03:47:42;;;;;;;22.05;13.90;;;-4.60;99.90;;;;;;5056311;28;20098;-80
2022/01/23 03:50:12;;;;;;;18.85;10.18;;;-4.60;99.90;;;;;;5038015;28;20060;-80
2022/01/23 03:52:38;;;;;;;17.13;9.38;;;-4.60;99.90;;;;;;5037935;28;20072;-80
2022/01/23 03:55:06;;;;;;;14.45;8.57;;;-4.60;99.90;;;;;;5055893;28;20029;-81
2022/01/23 03:57:32;;;;;;;18.55;9.23;;;-4.70;99.90;;;;;;5055782;28;20041;-80
2022/01/23 03:59:58;;;;;;;20.65;9.05;;;-4.70;99.90;;;;;;5037918;28;20025;-80
2022/01/23 04:02:24;;;;;;;18.58;9.38;;;-4.70;99.90;;;;;;5037811;28;20033;-80
2022/01/23 04:04:49;;;;;;;15.75;8.82;;;-4.70;99.90;;;;;;5055856;28;20072;-81
2022/01/23 04:07:22;;;;;;;21.42;9.95;;;-4.80;99.90;;;;;;5055598;28;20474;-80
2022/01/23 04:09:49;;;;;;;21.75;10.35;;;-4.70;99.90;;;;;;5055680;28;20041;-80
2022/01/23 04:15:17;;;;;;;16.30;10.52;;;-4.70;99.90;;;;;;5048550;28;20083;-80
2022/01/23 04:33:48;;;;;;;24.95;11.32;;;-4.80;99.90;;;;;;5075440;28;20135;-80
2022/01/23 05:01:01;;;;;;;23.27;12.77;;;-4.80;99.90;;;;;;4993424;28;20067;-80
2022/01/23 05:06:21;;;;;;;26.80;14.02;;;-4.80;99.90;;;;;;5034671;28;20052;-80
2022/01/23 05:08:46;;;;;;;35.22;20.80;;;-4.90;99.90;;;;;;5034124;28;20033;-80
2022/01/23 05:11:13;;;;;;;30.08;14.07;;;-4.90;99.90;;;;;;5036170;28;20037;-80
2022/01/23 05:13:38;;;;;;;26.92;17.15;;;-4.90;99.90;;;;;;5036446;28;20128;-80
2022/01/23 05:16:05;;;;;;;24.85;13.65;;;-4.90;99.90;;;;;;5054268;28;20123;-80
2022/01/23 05:18:34;;;;;;;35.67;18.52;;;-4.90;99.90;;;;;;5054362;28;20029;-80
2022/01/23 05:21:47;;;;;;;27.65;15.45;;;-4.90;99.90;;;;;;5036601;28;20077;-80
2022/01/23 05:23:48;;;;;;;31.13;14.52;;;-4.90;99.90;;;;;;5053913;28;20589;-80
2022/01/23 05:26:14;;;;;;;29.55;13.82;;;-4.90;99.90;;;;;;5036090;28;20041;-80
2022/01/23 05:28:39;;;;;;;31.08;14.73;;;-4.90;99.90;;;;;;5054035;28;20025;-80
2022/01/23 05:31:05;;;;;;;24.63;14.30;;;-4.90;99.90;;;;;;5036161;28;20425;-80
2022/01/23 05:33:30;;;;;;;33.25;14.60;;;-4.90;99.90;;;;;;5050424;28;20059;-80
2022/01/23 05:35:56;;;;;;;28.00;14.32;;;-4.90;99.90;;;;;;5073772;28;20055;-80
2022/01/23 05:38:22;;;;;;;28.45;14.38;;;-4.90;99.90;;;;;;5071501;28;20029;-79
2022/01/23 05:40:55;;;;;;;21.55;12.48;;;-4.90;99.90;;;;;;5045425;28;20024;-80
2022/01/23 05:43:21;;;;;;;28.27;13.98;;;-5.00;99.90;;;;;;5055903;28;20020;-80
2022/01/23 05:45:46;;;;;;;35.97;13.93;;;-4.90;99.90;;;;;;5055230;28;20047;-80
2022/01/23 05:48:12;;;;;;;27.17;14.40;;;-4.90;99.90;;;;;;5073440;28;20040;-80
2022/01/23 05:50:38;;;;;;;33.60;16.23;;;-4.90;99.90;;;;;;5055615;28;20131;-80
2022/01/23 05:53:03;;;;;;;29.48;15.55;;;-4.90;99.90;;;;;;5073581;28;20387;-80
2022/01/23 05:55:29;;;;;;;32.38;14.02;;;-4.90;99.90;;;;;;5055716;28;20025;-80
2022/01/23 05:57:55;;;;;;;36.17;15.88;;;-4.90;99.90;;;;;;5055616;28;20020;-80
2022/01/23 06:00:20;;;;;;;38.35;18.65;;;-5.00;99.90;;;;;;5073548;28;20024;-80
2022/01/23 06:02:46;;;;;;;31.67;13.70;;;-4.90;99.90;;;;;;5073049;28;20501;-80
2022/01/23 06:05:12;;;;;;;30.45;15.82;;;-4.90;99.90;;;;;;5054931;28;20155;-80
2022/01/23 06:07:37;;;;;;;38.40;16.67;;;-5.00;99.90;;;;;;5050315;28;20047;-80
2022/01/23 06:10:04;;;;;;;34.25;17.10;;;-4.90;99.90;;;;;;5055171;28;20033;-80
2022/01/23 06:12:30;;;;;;;30.33;15.45;;;-5.00;99.90;;;;;;5055200;28;20032;-79
2022/01/23 06:14:56;;;;;;;33.97;17.33;;;-5.00;99.90;;;;;;5050293;28;20025;-79
2022/01/23 06:17:21;;;;;;;37.15;19.67;;;-4.90;99.90;;;;;;5036538;28;20039;-80
2022/01/23 06:19:47;;;;;;;33.78;16.52;;;-4.90;99.90;;;;;;5055208;28;20116;-80
2022/01/23 06:22:15;;;;;;;33.83;16.75;;;-4.90;99.90;;;;;;5072993;28;20122;-79
2022/01/23 06:24:46;;;;;;;41.15;19.15;;;-5.00;99.90;;;;;;5054613;28;20044;-80
2022/01/23 06:27:12;;;;;;;39.93;19.33;;;-5.00;99.90;;;;;;5052921;28;20037;-80
2022/01/23 06:29:42;;;;;;;42.25;20.40;;;-5.00;99.90;;;;;;5052953;28;20267;-80
2022/01/23 06:32:08;;;;;;;33.00;19.85;;;-5.00;99.90;;;;;;5034677;28;20029;-80
2022/01/23 06:34:33;;;;;;;44.33;22.90;;;-5.00;99.90;;;;;;5052796;28;20047;-80
2022/01/23 06:36:59;;;;;;;114.32;53.30;;;-4.90;99.90;;;;;;5052541;28;20037;-80
2022/01/23 06:39:25;;;;;;;406.58;149.88;;;-4.90;99.90;;;;;;5052742;28;20064;-80
2022/01/23 06:41:51;;;;;;;393.48;136.60;;;-4.90;99.90;;;;;;5052795;28;20394;-79
2022/01/23 06:44:17;;;;;;;882.10;384.27;;;-4.90;99.90;;;;;;5034784;28;20075;-80
2022/01/23 06:46:42;;;;;;;386.70;134.55;;;-4.90;99.90;;;;;;5034588;28;20060;-79
2022/01/23 06:49:09;;;;;;;1041.38;416.60;;;-4.80;99.90;;;;;;5034919;28;20025;-80
2022/01/23 06:51:35;;;;;;;492.95;177.38;;;-4.80;99.90;;;;;;5052466;28;20035;-80
2022/01/23 06:54:01;;;;;;;730.55;277.05;;;-4.80;99.90;;;;;;5052628;28;20029;-80
2022/01/23 06:56:27;;;;;;;527.40;168.30;;;-4.80;99.90;;;;;;5055955;28;20120;-79
2022/01/23 06:58:54;;;;;;;313.60;87.45;;;-4.70;99.90;;;;;;5071988;28;20056;-80
2022/01/23 07:01:19;;;;;;;287.35;80.72;;;-4.70;99.90;;;;;;5051107;28;20025;-79
2022/01/23 07:03:45;;;;;;;240.75;68.20;;;-4.70;99.90;;;;;;5072749;28;20374;-80
2022/01/23 07:06:11;;;;;;;53.38;24.15;;;-4.60;99.90;;;;;;5072488;28;20474;-79
2022/01/23 07:08:36;;;;;;;54.20;24.80;;;-4.60;99.90;;;;;;5072439;28;20044;-79
2022/01/23 07:11:02;;;;;;;47.58;21.67;;;-4.60;99.90;;;;;;5054922;28;20033;-78
2022/01/23 07:13:27;;;;;;;193.85;65.60;;;-4.60;99.90;;;;;;5052634;28;20033;-80
2022/01/23 07:15:53;;;;;;;492.65;151.90;;;-4.50;99.90;;;;;;5033944;28;20021;-80
2022/01/23 07:18:19;;;;;;;77.53;31.45;;;-4.50;99.90;;;;;;5050342;28;20021;-80
2022/01/23 07:20:45;;;;;;;254.00;71.00;;;-4.50;99.90;;;;;;5034463;28;20104;-80
2022/01/23 07:23:12;;;;;;;150.23;48.67;;;-4.40;99.90;;;;;;5041038;28;20052;-80
2022/01/23 07:25:39;;;;;;;102.20;42.08;;;-4.40;99.90;;;;;;5040252;28;20033;-80
2022/01/23 07:28:10;;;;;;;519.85;172.55;;;-4.40;99.90;;;;;;5041891;28;20056;-80
2022/01/23 07:30:41;;;;;;;238.60;75.25;;;-4.40;99.90;;;;;;5033982;28;20060;-80
2022/01/23 07:33:06;;;;;;;130.23;44.88;;;-4.30;99.90;;;;;;5050744;28;20127;-80
2022/01/23 07:35:32;;;;;;;61.67;25.17;;;-4.30;99.90;;;;;;5031832;28;20135;-80
2022/01/23 07:37:58;;;;;;;57.92;24.70;;;-4.30;99.90;;;;;;5049784;28;20040;-80
2022/01/23 07:40:24;;;;;;;68.55;25.80;;;-4.30;99.90;;;;;;5031679;28;20025;-80
2022/01/23 07:42:49;;;;;;;49.35;23.90;;;-4.30;99.90;;;;;;5031901;28;20119;-80
2022/01/23 07:45:15;;;;;;;47.63;20.80;;;-4.20;99.90;;;;;;5037669;28;20044;-79
2022/01/23 07:47:41;;;;;;;42.63;21.42;;;-4.20;99.90;;;;;;5040640;28;20474;-79
2022/01/23 07:50:08;;;;;;;45.22;22.60;;;-4.20;99.90;;;;;;5052029;28;20123;-79
2022/01/23 07:52:38;;;;;;;35.35;20.30;;;-4.10;99.90;;;;;;5037227;28;20052;-79
2022/01/23 07:55:10;;;;;;;44.55;19.83;;;-4.10;99.90;;;;;;5043238;28;20469;-79
2022/01/23 07:57:37;;;;;;;40.58;22.17;;;-4.10;99.90;;;;;;5040905;28;20027;-79
2022/01/23 08:00:07;;;;;;;41.63;19.08;;;-4.00;99.90;;;;;;5053351;28;20033;-80
2022/01/23 08:02:33;;;;;;;38.75;19.92;;;-4.00;99.90;;;;;;5051956;28;20470;-79
2022/01/23 08:04:59;;;;;;;47.55;21.75;;;-3.90;99.90;;;;;;5051912;28;20045;-80
2022/01/23 08:09:53;;;;;;;42.22;20.80;;;-3.80;99.90;;;;;;5055142;28;20036;-80
2022/01/23 08:12:19;;;;;;;44.85;21.55;;;-3.80;99.90;;;;;;5055612;28;20033;-79
2022/01/23 08:14:44;;;;;;;47.17;21.45;;;-3.80;99.90;;;;;;5037697;28;20029;-79
2022/01/23 08:17:10;;;;;;;42.15;20.92;;;-3.80;99.90;;;;;;5037646;28;20040;-79
2022/01/23 08:19:35;;;;;;;41.70;21.63;;;-3.70;99.90;;;;;;5037653;28;20508;-80
2022/01/23 08:22:01;;;;;;;96.68;34.95;;;-3.70;99.90;;;;;;5055450;28;20037;-80
2022/01/23 08:24:27;;;;;;;56.15;22.90;;;-3.70;99.90;;;;;;5055379;28;20040;-80
2022/01/23 08:26:52;;;;;;;40.80;19.42;;;-3.60;99.90;;;;;;5037423;28;20320;-80
2022/01/23 08:29:18;;;;;;;145.98;51.70;;;-3.60;99.90;;;;;;5037498;28;20037;-79
2022/01/23 08:31:45;;;;;;;60.70;25.20;;;-3.50;99.90;;;;;;5037292;28;20029;-79
2022/01/23 08:34:11;;;;;;;43.13;20.77;;;-3.50;99.90;;;;;;5037270;28;20035;-81
2022/01/23 08:36:37;;;;;;;42.85;20.88;;;-3.50;99.90;;;;;;5043345;28;20061;-81
2022/01/23 08:39:03;;;;;;;54.78;22.35;;;-3.50;99.90;;;;;;5034104;28;20057;-81
2022/01/23 08:44:13;;;;;;;55.25;25.58;;;-3.40;99.90;;;;;;5034490;28;20417;-80
2022/01/23 08:46:39;;;;;;;44.65;21.77;;;-3.30;99.90;;;;;;5000304;28;20034;-80
2022/01/23 08:49:04;;;;;;;41.67;22.30;;;-3.40;99.90;;;;;;5034383;28;20040;-79
2022/01/23 08:51:30;;;;;;;78.47;32.10;;;-3.30;99.90;;;;;;5020574;28;20638;-80
2022/01/23 08:53:58;;;;;;;502.42;144.45;;;-3.30;99.90;;;;;;5071084;28;20037;-79
2022/01/23 08:56:23;;;;;;;177.38;72.50;;;-3.20;99.90;;;;;;5035999;28;20036;-79
2022/01/23 08:58:50;;;;;;;72.45;32.92;;;-3.20;99.90;;;;;;5069567;28;20091;-80
2022/01/23 09:01:16;;;;;;;43.30;20.98;;;-3.20;99.90;;;;;;5034353;28;20502;-80
2022/01/23 09:03:42;;;;;;;41.97;19.80;;;-3.20;99.90;;;;;;5034625;28;20033;-80
2022/01/23 09:06:08;;;;;;;62.95;25.40;;;-3.20;99.90;;;;;;5055405;28;20093;-81
2022/01/23 09:08:37;;;;;;;63.30;29.45;;;-3.10;99.90;;;;;;5040205;28;20483;-81
2022/01/23 09:11:08;;;;;;;107.65;44.55;;;-3.10;99.90;;;;;;5053857;28;20033;-81
2022/01/23 09:16:11;;;;;;;82.85;33.65;;;-2.90;99.90;;;;;;5053701;28;20454;-80
2022/01/23 09:18:37;;;;;;;75.53;31.30;;;-2.90;99.90;;;;;;5053350;28;20048;-80
2022/01/23 09:21:03;;;;;;;49.45;25.23;;;-2.90;99.90;;;;;;5035091;28;20033;-79
2022/01/23 09:23:30;;;;;;;79.75;32.92;;;-3.00;99.90;;;;;;5034767;28;20040;-82
2022/01/23 09:25:58;;;;;;;74.00;35.88;;;-2.90;99.90;;;;;;5053573;28;20116;-81
2022/01/23 09:28:30;;;;;;;63.38;28.63;;;-2.80;99.90;;;;;;5064068;28;20493;-83
2022/01/23 09:30:56;;;;;;;129.73;47.78;;;-2.80;99.90;;;;;;5038740;28;20037;-80
2022/01/23 09:33:22;;;;;;;173.93;58.78;;;-2.80;99.90;;;;;;5046431;28;20494;-82
2022/01/23 09:35:47;;;;;;;108.80;42.40;;;-2.70;99.90;;;;;;5033331;28;20033;-82
2022/01/23 09:38:13;;;;;;;140.27;52.33;;;-2.60;99.90;;;;;;5014476;28;20061;-82
2022/01/23 09:40:41;;;;;;;93.55;36.60;;;-2.50;99.90;;;;;;5031971;28;20030;-81
2022/01/23 09:43:12;;;;;;;99.32;40.55;;;-2.50;99.90;;;;;;5015359;28;20044;-82
2022/01/23 09:45:38;;;;;;;72.10;31.83;;;-2.40;99.90;;;;;;5015442;28;20038;-82
2022/01/23 09:48:04;;;;;;;63.00;29.73;;;-2.30;99.90;;;;;;5032654;28;20069;-81
2022/01/23 09:50:31;;;;;;;156.88;58.60;;;-2.20;99.90;;;;;;5051420;28;20068;-82
2022/01/23 09:52:58;;;;;;;66.65;29.63;;;-2.30;99.90;;;;;;5051839;28;20430;-82
2022/01/23 09:55:26;;;;;;;255.98;83.10;;;-2.20;99.90;;;;;;5034758;28;20036;-81
2022/01/23 09:57:51;;;;;;;136.75;48.80;;;-2.10;99.90;;;;;;5052902;28;20486;-81
2022/01/23 10:00:26;;;;;;;120.78;40.83;;;-2.10;99.90;;;;;;5053061;28;20080;-81
2022/01/23 10:02:53;;;;;;;52.85;22.67;;;-2.00;99.90;;;;;;5052835;28;20062;-83
2022/01/23 10:05:19;;;;;;;90.70;38.25;;;-2.00;99.90;;;;;;5034700;28;20486;-83
2022/01/23 10:07:45;;;;;;;245.38;91.75;;;-1.90;99.90;;;;;;5051050;28;20093;-80
2022/01/23 10:10:19;;;;;;;169.50;58.20;;;-1.90;99.90;;;;;;5050364;28;20090;-80
2022/01/23 10:12:50;;;;;;;131.13;48.58;;;-1.90;99.90;;;;;;5035409;28;20409;-80
2022/01/23 10:15:18;;;;;;;66.45;28.40;;;-1.90;99.90;;;;;;5033751;28;20030;-80
2022/01/23 10:17:44;;;;;;;97.50;39.35;;;-1.90;99.90;;;;;;5053288;28;20033;-80
2022/01/23 10:20:11;;;;;;;62.80;27.33;;;-1.90;99.90;;;;;;5034898;28;20029;-80
2022/01/23 10:22:41;;;;;;;121.85;55.88;;;-2.00;99.90;;;;;;5049563;28;20033;-80
2022/01/23 10:25:14;;;;;;;209.98;82.00;;;-1.80;99.90;;;;;;5054611;28;20596;-80
2022/01/23 10:28:20;;;;;;;99.82;44.33;;;-1.80;99.90;;;;;;5048207;28;20039;-80
2022/01/23 10:30:53;;;;;;;85.57;36.60;;;-1.70;99.90;;;;;;5032468;28;20494;-80
2022/01/23 10:33:34;;;;;;;64.65;28.75;;;-1.60;99.90;;;;;;5056799;28;20040;-81
2022/01/23 10:36:12;;;;;;;62.05;28.77;;;-1.60;99.90;;;;;;5072893;28;20107;-81
2022/01/23 10:38:44;;;;;;;69.30;31.20;;;-1.70;99.90;;;;;;5055019;28;20040;-81
2022/01/23 10:49:22;;;;;;;88.72;45.22;;;-1.50;99.90;;;;;;5002287;28;20068;-81
2022/01/23 10:51:51;;;;;;;138.00;56.80;;;-1.40;99.90;;;;;;5034864;28;20079;-81
2022/01/23 10:54:20;;;;;;;93.75;40.92;;;-1.20;99.90;;;;;;5034972;28;20033;-81
2022/01/23 10:56:49;;;;;;;137.45;52.25;;;-1.20;99.90;;;;;;5034955;28;20040;-81
2022/01/23 10:59:15;;;;;;;58.17;24.98;;;-1.20;99.90;;;;;;5041798;28;20060;-81
2022/01/23 11:02:05;;;;;;;81.55;36.20;;;-1.20;99.90;;;;;;5044565;28;20445;-81
2022/01/23 11:04:49;;;;;;;60.67;27.58;;;-1.10;99.90;;;;;;5066318;28;20053;-81
2022/01/23 11:07:15;;;;;;;54.47;27.75;;;-1.20;99.90;;;;;;5048298;28;20124;-81
2022/01/23 11:09:41;;;;;;;67.68;27.23;;;-1.10;99.90;;;;;;5047609;28;20135;-81
2022/01/23 11:12:32;;;;;;;45.67;20.38;;;-1.10;99.90;;;;;;5047447;28;20136;-81
2022/01/23 11:17:52;;;;;;;27.73;14.27;;;-1.10;97.00;;;;;;5062295;28;20033;-81
2022/01/23 11:20:35;;;;;;;28.98;14.75;;;-1.10;96.80;;;;;;5048098;28;20032;-81
2022/01/23 11:23:22;;;;;;;44.72;19.88;;;-1.00;96.20;;;;;;5059646;28;20421;-81
2022/01/23 11:25:57;;;;;;;65.47;27.48;;;-1.00;96.60;;;;;;5047635;28;20399;-81
2022/01/23 11:28:33;;;;;;;41.78;23.10;;;-0.90;96.00;;;;;;5047794;28;20037;-81
2022/01/23 11:30:59;;;;;;;46.30;19.73;;;-0.90;95.50;;;;;;5066176;28;20536;-81
2022/01/23 11:33:25;;;;;;;35.13;16.48;;;-0.90;95.70;;;;;;5065211;28;20032;-81
2022/01/23 11:35:52;;;;;;;26.88;14.88;;;-0.80;96.50;;;;;;5048724;28;20060;-81
2022/01/23 11:38:20;;;;;;;31.20;15.63;;;-0.80;94.30;;;;;;5048611;28;20037;-81
2022/01/23 11:54:52;;;;;;;38.45;17.80;;;-0.80;96.70;;;;;;5069406;28;20132;-81
2022/01/23 11:57:38;;;;;;;34.80;15.80;;;-0.80;96.30;;;;;;5054510;28;20392;-81
2022/01/23 12:00:13;;;;;;;46.80;24.02;;;-0.90;97.40;;;;;;5047314;28;20028;-81
2022/01/23 12:02:42;;;;;;;61.45;28.95;;;-0.90;98.00;;;;;;5072434;28;20036;-82
2022/01/23 12:05:11;;;;;;;38.08;16.63;;;-0.90;99.30;;;;;;5072483;28;20072;-81
2022/01/23 12:07:39;;;;;;;35.55;17.83;;;-1.00;99.30;;;;;;5055095;28;20135;-81
2022/01/23 12:10:27;;;;;;;39.20;17.60;;;-1.00;99.90;;;;;;5053207;28;20036;-81
2022/01/23 12:13:22;;;;;;;36.55;16.63;;;-1.00;99.90;;;;;;5072051;28;20033;-81
2022/01/23 12:18:38;;;;;;;33.33;13.88;;;-1.10;99.90;;;;;;5073446;28;20051;-81
2022/01/23 12:21:04;;;;;;;38.25;19.27;;;-1.10;99.90;;;;;;5072324;28;20111;-81
2022/01/23 12:23:57;;;;;;;30.38;15.68;;;-1.10;99.90;;;;;;5053209;28;20044;-81
2022/01/23 12:26:22;;;;;;;42.40;19.98;;;-1.10;99.90;;;;;;5053191;28;20482;-81
2022/01/23 12:28:48;;;;;;;27.95;15.85;;;-1.20;99.90;;;;;;5050233;28;20111;-81
2022/01/23 12:31:13;;;;;;;26.52;15.90;;;-1.30;99.90;;;;;;5069861;28;20606;-81
2022/01/23 12:33:44;;;;;;;33.88;16.65;;;-1.30;99.90;;;;;;5052623;28;20048;-81
2022/01/23 12:36:15;;;;;;;34.60;16.25;;;-1.40;99.90;;;;;;5068697;28;20040;-81
2022/01/23 12:38:44;;;;;;;36.22;16.92;;;-1.40;99.90;;;;;;5071492;28;20501;-81
2022/01/23 12:41:25;;;;;;;40.15;17.92;;;-1.40;99.90;;;;;;5053874;28;20098;-79
2022/01/23 12:43:53;;;;;;;135.30;62.10;;;-1.40;99.90;;;;;;5050294;28;20182;-79
2022/01/23 12:46:41;;;;;;;56.70;25.00;;;-1.30;99.90;;;;;;5071331;28;20037;-78
2022/01/23 12:49:26;;;;;;;56.00;24.95;;;-1.30;99.90;;;;;;5072906;28;20036;-78
2022/01/23 12:52:15;;;;;;;32.08;17.30;;;-1.30;99.90;;;;;;5048510;28;20083;-78
2022/01/23 12:54:46;;;;;;;38.03;17.35;;;-1.30;99.90;;;;;;5069551;28;20486;-78
2022/01/23 12:57:17;;;;;;;40.05;18.73;;;-1.30;99.90;;;;;;5070322;28;20086;-78
2022/01/23 12:59:51;;;;;;;44.40;18.75;;;-1.30;99.90;;;;;;5052986;28;20482;-79
2022/01/23 13:02:19;;;;;;;44.30;20.08;;;-1.20;99.90;;;;;;5064962;28;20033;-78
2022/01/23 13:04:50;;;;;;;41.25;19.52;;;-1.20;99.90;;;;;;5065676;28;20040;-79
2022/01/23 13:07:23;;;;;;;62.58;32.67;;;-1.30;99.90;;;;;;5067353;28;20024;-78
2022/01/23 13:10:03;;;;;;;;;;;-1.30;99.90;;;;;;5068029;28;20142;-79
2022/01/23 13:13:12;;;;;;;40.55;21.92;;;-1.30;99.90;;;;;;5066156;28;19919;-78
2022/01/23 13:34:41;;;;;;;43.92;24.45;;;-1.20;99.90;;;;;;5067805;28;20040;-78
2022/01/23 13:37:08;;;;;;;49.95;19.52;;;-1.20;99.90;;;;;;5007206;28;20043;-78
2022/01/23 13:39:45;;;;;;;52.92;24.38;;;-1.30;99.90;;;;;;5066170;28;20040;-79
2022/01/23 13:48:52;;;;;;;33.65;16.15;;;-1.40;99.90;;;;;;5065407;28;20039;-78
2022/01/23 14:02:18;;;;;;;55.50;26.40;;;-1.50;99.90;;;;;;5069618;28;20066;-78
2022/01/23 14:04:49;;;;;;;42.38;19.45;;;-1.40;99.90;;;;;;5042757;28;20421;-78
2022/01/23 14:07:23;;;;;;;38.20;18.42;;;-1.50;99.90;;;;;;5061060;28;20028;-78
2022/01/23 14:09:50;;;;;;;38.75;16.45;;;-1.40;99.90;;;;;;5068535;28;20566;-78
2022/01/23 14:12:18;;;;;;;36.15;18.10;;;-1.40;99.90;;;;;;5070462;28;20055;-78
2022/01/23 14:15:04;;;;;;;45.20;21.65;;;-1.50;99.90;;;;;;5052720;28;20125;-78
2022/01/23 14:17:36;;;;;;;44.65;17.92;;;-1.40;99.90;;;;;;5057666;28;20475;-78
2022/01/23 14:20:16;;;;;;;40.35;18.42;;;-1.50;99.90;;;;;;5052068;28;20033;-78
2022/01/23 14:22:45;;;;;;;39.38;18.17;;;-1.50;99.90;;;;;;5052817;28;20468;-78
2022/01/23 14:25:28;;;;;;;44.63;20.25;;;-1.50;99.90;;;;;;5068501;28;20071;-78
2022/01/23 14:28:05;;;;;;;45.35;22.55;;;-1.50;99.90;;;;;;5069272;28;20029;-78
2022/01/23 14:30:32;;;;;;;66.10;32.53;;;-1.50;99.90;;;;;;5050047;28;20032;-78
2022/01/23 14:33:10;;;;;;;46.15;24.65;;;-1.50;99.90;;;;;;5049375;28;20060;-78
2022/01/23 14:35:35;;;;;;;80.50;33.95;;;-1.50;99.90;;;;;;5046140;28;20032;-78
2022/01/23 14:38:13;;;;;;;60.88;27.55;;;-1.60;99.90;;;;;;5067469;28;20039;-78
2022/01/23 14:40:51;;;;;;;55.83;27.73;;;-1.60;99.90;;;;;;5046884;28;20551;-78
2022/01/23 14:43:17;;;;;;;73.75;32.13;;;-1.60;99.90;;;;;;5034248;28;20061;-78
2022/01/23 14:45:45;;;;;;;75.93;33.05;;;-1.60;99.90;;;;;;5070600;28;20118;-78
2022/01/23 14:48:12;;;;;;;55.45;27.35;;;-1.60;99.90;;;;;;5072646;28;20028;-78
2022/01/23 14:50:41;;;;;;;56.47;30.17;;;-1.70;99.90;;;;;;5065724;28;20611;-78
2022/01/23 14:53:14;;;;;;;85.30;38.72;;;-1.70;99.90;;;;;;5059437;28;20079;-78
2022/01/23 14:55:46;;;;;;;55.03;29.30;;;-1.60;99.90;;;;;;5044223;28;20117;-79
2022/01/23 14:58:14;;;;;;;69.57;31.70;;;-1.60;99.90;;;;;;5060847;28;20498;-79
2022/01/23 15:00:40;;;;;;;72.53;31.75;;;-1.70;99.90;;;;;;5059467;28;20100;-78
2022/01/23 15:03:06;;;;;;;63.17;30.10;;;-1.60;99.90;;;;;;5043376;28;20072;-78
2022/01/23 15:05:40;;;;;;;70.45;35.22;;;-1.70;99.90;;;;;;5060264;28;20089;-79
2022/01/23 15:08:08;;;;;;;79.15;36.78;;;-1.70;99.90;;;;;;5059043;28;20053;-78
2022/01/23 15:10:39;;;;;;;92.10;42.35;;;-1.70;99.90;;;;;;5043095;28;20044;-78
2022/01/23 15:13:06;;;;;;;77.55;34.63;;;-1.70;99.90;;;;;;5049032;28;20028;-78
2022/01/23 15:15:32;;;;;;;68.40;33.47;;;-1.80;99.90;;;;;;5054419;28;20033;-78
2022/01/23 15:17:58;;;;;;;63.10;27.83;;;-1.70;99.90;;;;;;5072364;28;20025;-78
2022/01/23 15:20:24;;;;;;;52.15;25.30;;;-1.70;99.90;;;;;;5058323;28;20040;-78
2022/01/23 15:22:50;;;;;;;47.95;22.00;;;-1.80;99.90;;;;;;5058096;28;20028;-78
2022/01/23 15:25:18;;;;;;;45.88;23.98;;;-1.80;99.90;;;;;;5076296;28;20512;-78
2022/01/23 15:27:44;;;;;;;49.45;23.40;;;-1.80;99.90;;;;;;5058601;28;20040;-78
2022/01/23 15:30:11;;;;;;;72.47;31.60;;;-1.80;99.90;;;;;;5074879;28;20040;-78
2022/01/23 15:32:37;;;;;;;62.25;29.42;;;-1.70;99.90;;;;;;5069850;28;20029;-78
2022/01/23 15:35:04;;;;;;;71.88;30.65;;;-1.80;99.90;;;;;;5047516;28;20394;-78
2022/01/23 15:37:30;;;;;;;78.10;37.00;;;-1.70;99.90;;;;;;5050830;28;20076;-79
2022/01/23 15:39:55;;;;;;;85.45;35.17;;;-1.70;99.90;;;;;;5044151;28;20029;-78
2022/01/23 15:42:21;;;;;;;71.10;35.10;;;-1.70;99.90;;;;;;5064565;28;20079;-78
2022/01/23 15:44:47;;;;;;;90.53;40.50;;;-1.70;99.90;;;;;;5047677;28;20068;-78
2022/01/23 15:47:12;;;;;;;105.30;43.25;;;-1.70;99.90;;;;;;5055537;28;20041;-78
2022/01/23 15:49:38;;;;;;;91.82;39.60;;;-1.70;99.90;;;;;;5038236;28;20112;-79
2022/01/23 15:52:05;;;;;;;72.00;31.85;;;-1.60;99.90;;;;;;5038053;28;20037;-78
2022/01/23 15:54:31;;;;;;;83.68;38.88;;;-1.60;99.90;;;;;;5055924;28;20033;-78
2022/01/23 15:56:57;;;;;;;88.55;38.92;;;-1.60;99.90;;;;;;5037811;28;20035;-78
2022/01/23 15:59:23;;;;;;;101.68;43.38;;;-1.60;99.90;;;;;;5055897;28;20390;-78
2022/01/23 16:01:50;;;;;;;76.93;34.92;;;-1.60;99.90;;;;;;5055817;28;20071;-78